createdAt,value
2022-09-10T00:00:31.900Z,22.39
2022-09-10T00:03:43.714Z,22.56
2022-09-10T00:06:34.744Z,22.40
2022-09-10T00:09:43.997Z,22.28
2022-09-10T00:13:17.277Z,22.15
2022-09-10T00:17:08.577Z,21.96
2022-09-10T00:20:59.287Z,21.35
2022-09-10T00:24:48.806Z,20.84
2022-09-10T00:32:29.334Z,21.12
2022-09-10T00:36:18.218Z,21.37
2022-09-10T00:39:50.245Z,21.66
2022-09-10T00:43:39.236Z,21.65
2022-09-10T00:47:28.167Z,21.79
2022-09-10T00:51:17.274Z,21.82
2022-09-10T00:54:57.560Z,22.15
2022-09-10T00:58:17.006Z,21.78
2022-09-10T01:02:05.870Z,21.92
2022-09-10T01:05:40.789Z,21.69
2022-09-10T01:09:03.177Z,21.39
2022-09-10T01:13:17.140Z,21.37
2022-09-10T01:17:13.139Z,21.11
2022-09-10T01:21:36.125Z,21.08
2022-09-10T01:25:37.176Z,21.39
2022-09-10T01:29:26.236Z,21.44
2022-09-10T01:33:14.797Z,21.01
2022-09-10T01:37:06.863Z,20.91
2022-09-10T01:40:55.905Z,21.42
2022-09-10T01:43:56.648Z,21.66
2022-09-10T01:47:32.735Z,21.68
2022-09-10T01:51:02.621Z,21.82
2022-09-10T01:54:47.228Z,21.62
2022-09-10T01:58:33.323Z,21.30
2022-09-10T02:02:40.769Z,21.40
2022-09-10T02:06:20.059Z,21.39
2022-09-10T02:09:58.841Z,21.78
2022-09-10T02:13:31.254Z,21.66
2022-09-10T02:16:57.801Z,21.71
2022-09-10T02:20:39.929Z,21.72
2022-09-10T02:24:31.625Z,22.19
2022-09-10T02:27:58.709Z,21.93
2022-09-10T02:31:47.763Z,21.89
2022-09-10T02:35:16.894Z,21.74
2022-09-10T02:39:05.917Z,21.77
2022-09-10T02:42:55.023Z,21.72
2022-09-10T02:46:17.441Z,21.44
2022-09-10T02:49:52.571Z,21.12
2022-09-10T02:53:17.201Z,21.13
2022-09-10T02:56:57.130Z,21.08
2022-09-10T03:00:39.085Z,21.03
2022-09-10T03:03:39.316Z,21.01
2022-09-10T03:07:17.210Z,21.02
2022-09-10T03:10:46.474Z,20.95
2022-09-10T03:14:35.405Z,20.85
2022-09-10T03:18:24.651Z,20.94
2022-09-10T03:22:13.422Z,21.00
2022-09-10T03:26:02.313Z,21.15
2022-09-10T03:29:34.274Z,20.95
2022-09-10T03:33:23.348Z,21.04
2022-09-10T03:45:48.084Z,21.10
2022-09-10T03:49:40.482Z,21.67
2022-09-10T03:53:28.976Z,21.29
2022-09-10T03:57:17.786Z,21.29
2022-09-10T04:05:18.036Z,20.69
2022-09-10T04:09:05.671Z,20.72
2022-09-10T04:12:53.352Z,20.78
2022-09-10T04:17:19.678Z,20.67
2022-09-10T04:21:10.420Z,20.46
2022-09-10T04:24:56.336Z,20.55
2022-09-10T04:28:35.373Z,20.61
2022-09-10T04:32:12.815Z,20.58
2022-09-10T04:36:00.406Z,21.27
2022-09-10T04:39:47.489Z,21.35
2022-09-10T04:43:35.242Z,21.40
2022-09-10T04:47:22.707Z,21.50
2022-09-10T04:51:18.303Z,21.39
2022-09-10T04:54:35.751Z,21.65
2022-09-10T04:58:24.245Z,21.66
2022-09-10T05:02:11.960Z,21.97
2022-09-10T05:05:59.506Z,21.26
2022-09-10T05:09:46.773Z,21.73
2022-09-10T05:13:34.481Z,21.45
2022-09-10T05:17:22.080Z,20.99
2022-09-10T05:21:09.701Z,21.19
2022-09-10T05:24:57.234Z,21.20
2022-09-10T05:28:24.665Z,20.97
2022-09-10T05:32:13.174Z,21.03
2022-09-10T05:36:00.918Z,20.78
2022-09-10T05:39:48.541Z,20.72
2022-09-10T05:43:26.694Z,20.92
2022-09-10T05:47:09.108Z,20.89
2022-09-10T05:50:42.306Z,20.91
2022-09-10T05:54:30.430Z,20.88
2022-09-10T05:58:17.920Z,20.65
2022-09-10T06:02:05.637Z,20.37
2022-09-10T06:05:46.006Z,20.25
2022-09-10T06:09:34.127Z,20.29
2022-09-10T06:13:27.782Z,20.36
2022-09-10T06:17:02.434Z,20.31
2022-09-10T06:20:28.474Z,20.48
2022-09-10T06:24:07.459Z,20.41
2022-09-10T06:27:09.679Z,20.36
2022-09-10T06:30:24.778Z,20.28
2022-09-10T06:33:46.188Z,20.26
2022-09-10T06:36:59.866Z,20.08
2022-09-10T06:40:37.521Z,20.04
2022-09-10T06:44:25.133Z,20.08
2022-09-10T06:48:38.360Z,20.29
2022-09-10T06:52:20.382Z,20.58
2022-09-10T06:56:08.706Z,20.44
2022-09-10T06:59:56.371Z,20.57
2022-09-10T07:03:45.609Z,20.48
2022-09-10T07:07:33.449Z,20.37
2022-09-10T07:10:57.281Z,20.25
2022-09-10T07:14:28.586Z,20.21
2022-09-10T07:18:16.601Z,20.32
2022-09-10T07:22:00.282Z,20.49
2022-09-10T07:25:08.160Z,20.54
2022-09-10T07:28:49.150Z,20.63
2022-09-10T07:32:30.158Z,20.77
2022-09-10T07:36:03.560Z,20.79
2022-09-10T07:39:41.391Z,20.67
2022-09-10T07:42:41.161Z,20.91
2022-09-10T07:45:43.996Z,20.86
2022-09-10T07:48:37.130Z,21.07
2022-09-10T07:51:23.204Z,21.15
2022-09-10T07:54:44.828Z,21.16
2022-09-10T07:57:59.476Z,21.18
2022-09-10T08:01:11.987Z,21.38
2022-09-10T08:05:00.562Z,21.67
2022-09-10T08:08:39.740Z,21.72
2022-09-10T08:12:09.658Z,21.97
2022-09-10T08:15:37.780Z,21.96
2022-09-10T08:18:35.566Z,22.19
2022-09-10T08:21:39.813Z,22.30
2022-09-10T08:24:52.833Z,22.57
2022-09-10T08:27:55.038Z,22.62
2022-09-10T08:31:02.351Z,22.59
2022-09-10T08:34:17.192Z,22.59
2022-09-10T08:38:05.831Z,22.90
2022-09-10T08:42:00.022Z,22.98
2022-09-10T08:45:57.900Z,22.95
2022-09-10T08:49:47.561Z,23.21
2022-09-10T08:53:45.209Z,23.35
2022-09-10T08:56:47.070Z,23.40
2022-09-10T09:00:07.274Z,23.49
2022-09-10T09:03:54.025Z,23.61
2022-09-10T09:07:07.253Z,23.98
2022-09-10T09:10:39.985Z,24.02
2022-09-10T09:14:44.578Z,23.93
2022-09-10T09:17:52.096Z,24.14
2022-09-10T09:21:00.001Z,24.10
2022-09-10T09:24:25.379Z,24.16
2022-09-10T09:27:52.547Z,24.20
2022-09-10T09:31:26.373Z,24.58
2022-09-10T09:34:50.052Z,24.72
2022-09-10T09:38:10.901Z,24.74
2022-09-10T09:42:12.056Z,24.61
2022-09-10T09:45:46.504Z,24.53
2022-09-10T09:48:52.464Z,24.41
2022-09-10T09:52:13.197Z,24.42
2022-09-10T09:56:10.841Z,24.49
2022-09-10T09:59:19.436Z,24.53
2022-09-10T10:02:16.205Z,24.62
2022-09-10T10:05:35.015Z,24.78
2022-09-10T10:09:21.593Z,24.88
2022-09-10T10:12:35.717Z,24.69
2022-09-10T10:16:18.365Z,24.64
2022-09-10T10:20:15.973Z,24.71
2022-09-10T10:24:06.251Z,24.93
2022-09-10T10:26:57.838Z,25.42
2022-09-10T10:30:52.835Z,25.49
2022-09-10T10:34:28.963Z,25.68
2022-09-10T10:38:47.328Z,25.72
2022-09-10T10:42:49.754Z,25.67
2022-09-10T10:46:11.304Z,25.73
2022-09-10T10:50:02.921Z,25.72
2022-09-10T10:53:30.978Z,26.14
2022-09-10T10:57:18.420Z,26.08
2022-09-10T11:01:11.685Z,25.62
2022-09-10T11:05:03.749Z,25.32
2022-09-10T11:08:39.235Z,25.33
2022-09-10T11:12:00.900Z,25.15
2022-09-10T11:16:08.719Z,25.45
2022-09-10T11:20:24.208Z,24.93
2022-09-10T11:23:47.968Z,26.01
2022-09-10T11:27:29.515Z,26.23
2022-09-10T11:31:18.786Z,25.43
2022-09-10T11:34:52.766Z,26.08
2022-09-10T11:37:55.060Z,26.62
2022-09-10T11:41:25.873Z,26.60
2022-09-10T11:44:36.845Z,26.06
2022-09-10T11:47:52.573Z,25.83
2022-09-10T11:52:22.534Z,25.86
2022-09-10T11:55:50.566Z,26.14
2022-09-10T11:59:44.801Z,27.97
2022-09-10T12:03:41.275Z,27.14
2022-09-10T12:07:39.674Z,27.75
2022-09-10T12:11:36.088Z,26.96
2022-09-10T12:14:46.818Z,26.83
2022-09-10T12:18:09.046Z,27.31
2022-09-10T12:21:32.969Z,26.19
2022-09-10T12:25:23.056Z,26.30
2022-09-10T12:29:22.348Z,26.16
2022-09-10T12:33:00.949Z,26.19
2022-09-10T12:35:52.378Z,26.53
2022-09-10T12:38:47.863Z,26.78
2022-09-10T12:42:09.581Z,27.67
2022-09-10T12:45:55.890Z,27.80
2022-09-10T12:48:42.762Z,27.13
2022-09-10T12:52:34.700Z,27.88
2022-09-10T12:55:53.863Z,28.07
2022-09-10T12:59:34.610Z,28.67
2022-09-10T13:02:57.676Z,28.68
2022-09-10T13:06:29.946Z,28.77
2022-09-10T13:09:58.208Z,28.48
2022-09-10T13:13:34.403Z,28.94
2022-09-10T13:17:22.841Z,29.29
2022-09-10T13:21:01.590Z,29.89
2022-09-10T13:24:48.099Z,29.65
2022-09-10T13:28:36.031Z,29.37
2022-09-10T13:32:33.206Z,29.67
2022-09-10T13:36:25.173Z,28.88
2022-09-10T13:40:11.626Z,28.92
2022-09-10T13:44:00.969Z,28.78
2022-09-10T13:47:49.298Z,28.24
2022-09-10T13:51:50.247Z,29.42
2022-09-10T13:55:33.059Z,30.14
2022-09-10T13:58:28.752Z,30.04
2022-09-10T14:01:26.225Z,30.30
2022-09-10T14:04:56.557Z,30.64
2022-09-10T14:08:07.948Z,30.70
2022-09-10T14:11:14.557Z,29.83
2022-09-10T14:14:48.977Z,29.63
2022-09-10T14:18:17.715Z,27.66
2022-09-10T14:21:36.351Z,26.43
2022-09-10T14:25:18.939Z,25.95
2022-09-10T14:29:24.325Z,25.37
2022-09-10T14:32:56.791Z,25.08
2022-09-10T14:36:01.885Z,25.12
2022-09-10T14:39:46.256Z,25.34
2022-09-10T14:43:18.062Z,25.79
2022-09-10T14:46:29.600Z,25.87
2022-09-10T14:49:52.799Z,25.44
2022-09-10T14:53:22.743Z,25.50
2022-09-10T14:56:58.747Z,25.77
2022-09-10T15:00:37.477Z,25.97
2022-09-10T15:03:28.329Z,26.08
2022-09-10T15:07:11.878Z,26.26
2022-09-10T15:10:17.355Z,26.43
2022-09-10T15:13:42.181Z,27.05
2022-09-10T15:17:31.432Z,26.88
2022-09-10T15:21:15.374Z,25.93
2022-09-10T15:24:38.935Z,26.36
2022-09-10T15:28:19.366Z,25.88
2022-09-10T15:31:32.124Z,24.99
2022-09-10T15:34:43.560Z,24.57
2022-09-10T15:38:03.121Z,24.87
2022-09-10T15:41:32.312Z,24.88
2022-09-10T15:45:21.023Z,24.62
2022-09-10T15:48:30.260Z,25.04
2022-09-10T15:51:41.988Z,24.68
2022-09-10T15:55:15.385Z,24.53
2022-09-10T15:58:30.886Z,24.51
2022-09-10T16:02:03.601Z,24.44
2022-09-10T16:05:34.754Z,23.98
2022-09-10T16:09:18.392Z,23.71
2022-09-10T16:12:58.330Z,23.86
2022-09-10T16:16:16.643Z,23.88
2022-09-10T16:19:38.998Z,23.95
2022-09-10T16:23:07.102Z,24.15
2022-09-10T16:26:55.114Z,24.07
2022-09-10T16:30:17.913Z,23.95
2022-09-10T16:34:09.356Z,24.03
2022-09-10T16:37:12.296Z,24.04
2022-09-10T16:40:45.522Z,23.98
2022-09-10T16:44:34.250Z,23.96
2022-09-10T16:48:04.598Z,23.78
2022-09-10T16:51:52.878Z,23.38
2022-09-10T16:55:24.348Z,23.03
2022-09-10T16:58:52.869Z,22.92
2022-09-10T17:02:14.572Z,22.51
2022-09-10T17:05:39.077Z,22.38
2022-09-10T17:09:08.421Z,22.26
2022-09-10T17:12:01.496Z,22.20
2022-09-10T17:15:16.989Z,22.05
2022-09-10T17:18:24.775Z,22.04
2022-09-10T17:22:17.888Z,22.08
2022-09-10T17:25:09.508Z,21.94
2022-09-10T17:28:03.812Z,21.84
2022-09-10T17:30:46.845Z,21.79
2022-09-10T17:33:40.074Z,21.73
2022-09-10T17:37:27.706Z,21.64
2022-09-10T17:41:03.105Z,21.41
2022-09-10T17:44:47.368Z,21.23
2022-09-10T17:48:35.738Z,21.28
2022-09-10T17:52:16.243Z,21.04
2022-09-10T17:56:04.154Z,20.76
2022-09-10T17:59:48.493Z,20.75
2022-09-10T18:03:03.106Z,20.95
2022-09-10T18:06:22.264Z,21.15
2022-09-10T18:09:32.835Z,21.32
2022-09-10T18:13:22.320Z,21.32
2022-09-10T18:16:33.029Z,21.11
2022-09-10T18:20:21.451Z,21.00
2022-09-10T18:23:51.958Z,20.75
2022-09-10T18:27:08.644Z,20.49
2022-09-10T18:30:39.272Z,20.31
2022-09-10T18:34:14.118Z,20.27
2022-09-10T18:37:24.750Z,20.33
2022-09-10T18:40:53.909Z,20.39
2022-09-10T18:44:25.344Z,20.56
2022-09-10T18:47:46.286Z,20.70
2022-09-10T18:51:35.117Z,20.76
2022-09-10T18:54:57.332Z,20.50
2022-09-10T18:58:25.639Z,20.46
2022-09-10T19:02:14.384Z,20.40
2022-09-10T19:06:03.572Z,20.46
2022-09-10T19:09:33.527Z,20.48
2022-09-10T19:13:22.352Z,20.57
2022-09-10T19:16:59.132Z,20.65
2022-09-10T19:20:12.438Z,20.80
2022-09-10T19:23:32.385Z,20.87
2022-09-10T19:27:15.152Z,20.68
2022-09-10T19:30:44.824Z,20.59
2022-09-10T19:34:14.840Z,20.37
2022-09-10T19:37:20.301Z,20.10
2022-09-10T19:41:09.108Z,19.89
2022-09-10T19:43:57.731Z,20.11
2022-09-10T19:47:46.747Z,20.24
2022-09-10T19:51:34.691Z,20.58
2022-09-10T19:55:08.525Z,20.89
2022-09-10T19:58:56.668Z,20.81
2022-09-10T20:02:16.229Z,20.90
2022-09-10T20:05:54.073Z,20.98
2022-09-10T20:09:25.820Z,21.07
2022-09-10T20:13:10.689Z,21.04
2022-09-10T20:16:41.456Z,21.01
2022-09-10T20:19:52.995Z,20.87
2022-09-10T20:23:41.891Z,20.67
2022-09-10T20:27:18.892Z,20.47
2022-09-10T20:30:47.121Z,20.73
2022-09-10T20:34:39.425Z,20.77
2022-09-10T20:38:18.558Z,20.75
2022-09-10T20:42:07.404Z,20.82
2022-09-10T20:45:46.331Z,20.92
2022-09-10T20:49:12.329Z,20.82
2022-09-10T20:52:47.001Z,20.70
2022-09-10T20:56:35.837Z,20.45
2022-09-10T20:59:54.870Z,20.68
2022-09-10T21:03:25.386Z,20.99
2022-09-10T21:06:54.565Z,21.34
2022-09-10T21:10:33.020Z,21.42
2022-09-10T21:14:24.154Z,21.46
2022-09-10T21:39:29.840Z,20.71
2022-09-10T21:42:58.809Z,20.56
2022-09-10T21:46:48.798Z,20.44
2022-09-10T21:50:38.031Z,20.70
2022-09-10T21:54:30.218Z,21.20
2022-09-10T21:58:18.378Z,21.37
2022-09-10T22:02:01.313Z,21.32
2022-09-10T22:05:30.305Z,21.29
2022-09-10T22:09:19.461Z,21.35
2022-09-10T22:13:08.923Z,21.19
2022-09-10T22:16:57.854Z,21.09
2022-09-10T22:20:47.546Z,20.93
2022-09-10T22:24:17.836Z,20.84
2022-09-10T22:27:33.467Z,20.66
2022-09-10T22:30:50.932Z,21.04
2022-09-10T22:34:13.402Z,20.55
2022-09-10T22:37:42.364Z,20.39
2022-09-10T22:41:31.793Z,20.46
2022-09-10T22:44:54.446Z,20.67
2022-09-10T22:48:36.413Z,20.62
2022-09-10T22:52:28.514Z,20.13
2022-09-10T22:56:17.852Z,20.12
2022-09-10T23:00:07.864Z,20.43
2022-09-10T23:03:57.199Z,20.49
2022-09-10T23:07:28.604Z,20.67
2022-09-10T23:11:10.142Z,21.40
2022-09-10T23:14:59.611Z,21.59
2022-09-10T23:18:49.696Z,21.48
2022-09-10T23:22:39.366Z,20.77
2022-09-10T23:26:29.367Z,20.45
2022-09-10T23:30:19.027Z,20.48
2022-09-10T23:34:08.475Z,20.33
2022-09-10T23:37:57.576Z,20.37
2022-09-10T23:41:45.517Z,20.51
2022-09-10T23:45:33.930Z,20.58
2022-09-10T23:49:22.778Z,20.67
2022-09-10T23:52:52.020Z,20.65
2022-09-10T23:56:41.710Z,20.67
